Time;durP1;ratioP1;P1;durP2;ratioP2;P2;SDS_P1;SDS_P2;PMS_P1;PMS_P2;Temp;Humidity;BMP_temperature;BMP_pressure;BME280_temperature;BME280_humidity;BME280_pressure;Samples;Min_cycle;Max_cycle;Signal;HPM_P1;HPM_P2
2022/12/20 00:01:35;;;;;;;28.63;20.27;;;;;;;0.77;100.00;99010.78;4197498;28;20227;-50
2022/12/20 00:03:37;;;;;;;23.45;20.45;;;;;;;0.85;100.00;99008.06;4183926;28;20269;-50
2022/12/20 00:05:40;;;;;;;25.00;19.38;;;;;;;0.71;100.00;99018.72;4217524;28;20262;-50
2022/12/20 00:07:42;;;;;;;23.65;18.63;;;;;;;0.68;100.00;99014.53;4199558;28;20219;-50
2022/12/20 00:09:44;;;;;;;23.75;19.02;;;;;;;0.67;100.00;99015.53;4216142;28;20300;-51
2022/12/20 00:11:45;;;;;;;25.77;20.88;;;;;;;0.67;100.00;99010.16;4185488;28;20242;-51
2022/12/20 00:13:47;;;;;;;29.25;21.63;;;;;;;0.65;100.00;99017.59;4216386;28;20234;-50
2022/12/20 00:15:49;;;;;;;26.27;18.80;;;;;;;0.67;100.00;99012.03;4218625;28;20213;-51
2022/12/20 00:17:51;;;;;;;24.73;18.15;;;;;;;0.65;100.00;99014.03;4212174;28;20227;-50
2022/12/20 00:19:53;;;;;;;31.15;21.15;;;;;;;0.63;100.00;99006.16;4197188;28;20215;-50
2022/12/20 00:21:55;;;;;;;41.55;26.77;;;;;;;0.66;100.00;98994.16;4199657;28;20279;-50
2022/12/20 00:23:57;;;;;;;52.97;31.38;;;;;;;0.80;100.00;98988.88;4202185;28;20259;-50
2022/12/20 00:26:20;;;;;;;53.53;33.72;;;;;;;0.68;100.00;98990.28;4197689;28;20210;-50
2022/12/20 00:28:22;;;;;;;38.33;29.55;;;;;;;0.65;100.00;98996.03;4196957;28;20251;-51
2022/12/20 00:30:25;;;;;;;29.45;25.02;;;;;;;0.63;100.00;98992.69;4198606;28;20581;-50
2022/12/20 00:32:27;;;;;;;30.92;27.40;;;;;;;0.67;100.00;98988.63;4200890;28;20248;-50
2022/12/20 00:34:29;;;;;;;32.10;24.98;;;;;;;0.55;100.00;98990.00;4199936;28;20748;-50
2022/12/20 00:36:31;;;;;;;38.50;24.45;;;;;;;0.58;100.00;98983.44;4197056;28;20203;-50
2022/12/20 00:38:34;;;;;;;26.77;23.58;;;;;;;0.66;100.00;98981.56;4179824;28;20223;-50
2022/12/20 00:40:36;;;;;;;29.20;24.42;;;;;;;0.61;100.00;98978.56;4196598;28;20238;-50
2022/12/20 00:42:37;;;;;;;27.95;24.92;;;;;;;0.60;100.00;98982.25;4203700;28;20314;-50
2022/12/20 00:44:39;;;;;;;26.23;23.42;;;;;;;0.65;100.00;98976.34;4185013;28;20238;-49
2022/12/20 00:46:41;;;;;;;27.05;21.23;;;;;;;0.57;100.00;98982.63;4217524;28;20232;-50
2022/12/20 00:48:43;;;;;;;33.70;24.23;;;;;;;0.53;100.00;98996.59;4220139;28;20250;-50
2022/12/20 00:50:45;;;;;;;26.42;20.05;;;;;;;0.50;100.00;98981.66;4206768;28;21626;-49
2022/12/20 00:52:46;;;;;;;24.00;21.45;;;;;;;0.49;100.00;98979.13;4203002;28;20203;-50
2022/12/20 00:54:48;;;;;;;29.80;23.83;;;;;;;0.46;100.00;98980.31;4207567;28;20650;-50
2022/12/20 00:56:50;;;;;;;44.67;22.50;;;;;;;0.43;100.00;98993.28;4220423;27;20208;-50
2022/12/20 00:58:53;;;;;;;26.73;21.42;;;;;;;0.45;100.00;98994.78;4206432;28;20226;-50
2022/12/20 01:00:55;;;;;;;25.52;21.55;;;;;;;0.46;100.00;98988.38;4201251;28;20211;-50
2022/12/20 01:02:57;;;;;;;24.02;19.83;;;;;;;0.48;100.00;98994.44;4217000;27;20227;-50
2022/12/20 01:04:59;;;;;;;21.77;19.25;;;;;;;0.44;100.00;98986.88;4221962;28;20202;-50
2022/12/20 01:07:01;;;;;;;29.80;19.92;;;;;;;0.41;100.00;98980.00;4198840;28;20214;-50
2022/12/20 01:09:04;;;;;;;32.33;21.08;;;;;;;0.40;100.00;98981.00;4203467;28;20227;-50
2022/12/20 01:11:12;;;;;;;27.05;20.17;;;;;;;0.43;100.00;98986.06;4203183;28;20359;-50
2022/12/20 01:13:14;;;;;;;19.15;16.90;;;;;;;0.56;100.00;98975.53;4206847;28;20297;-50
2022/12/20 01:15:16;;;;;;;26.80;19.65;;;;;;;0.49;100.00;98971.88;4200090;28;20239;-49
2022/12/20 01:17:18;;;;;;;27.75;19.13;;;;;;;0.64;100.00;98967.44;4204389;28;20234;-49
2022/12/20 01:19:19;;;;;;;22.50;19.67;;;;;;;0.56;100.00;98964.78;4201367;28;20872;-50
2022/12/20 01:21:25;;;;;;;22.33;19.30;;;;;;;0.58;100.00;98973.53;4191552;28;20717;-51
2022/12/20 01:23:27;;;;;;;22.38;18.65;;;;;;;0.66;100.00;98969.94;4202819;28;20246;-50
2022/12/20 01:25:28;;;;;;;28.27;19.48;;;;;;;0.64;100.00;98967.44;4199810;28;20293;-50
2022/12/20 01:27:30;;;;;;;25.90;17.92;;;;;;;0.58;100.00;98954.69;4206900;28;20260;-50
2022/12/20 01:29:32;;;;;;;22.77;18.77;;;;;;;0.58;100.00;98951.16;4216073;28;20212;-49
2022/12/20 01:31:34;;;;;;;22.13;18.73;;;;;;;0.55;100.00;98956.91;4217292;27;20287;-51
2022/12/20 01:33:38;;;;;;;20.35;18.25;;;;;;;0.55;100.00;98963.09;4201256;28;20257;-49
2022/12/20 01:35:40;;;;;;;22.13;18.50;;;;;;;0.55;100.00;98962.28;4196127;28;20236;-50
2022/12/20 01:37:42;;;;;;;24.17;19.85;;;;;;;0.62;100.00;98957.88;4197536;28;20665;-50
2022/12/20 01:39:44;;;;;;;21.65;19.40;;;;;;;0.61;100.00;98967.78;4171090;28;20232;-50
2022/12/20 01:41:46;;;;;;;32.47;19.15;;;;;;;0.51;100.00;98964.47;4186132;28;20231;-50
2022/12/20 01:43:52;;;;;;;22.67;18.85;;;;;;;0.52;100.00;98973.38;4213714;27;20210;-49
2022/12/20 01:45:54;;;;;;;30.45;19.58;;;;;;;0.53;100.00;98961.59;4202468;28;20226;-50
2022/12/20 01:47:57;;;;;;;31.33;20.55;;;;;;;0.54;100.00;98960.59;4191414;28;20477;-50
2022/12/20 01:50:02;;;;;;;25.00;19.13;;;;;;;0.50;100.00;98954.75;4218403;28;20210;-49
2022/12/20 01:52:39;;;;;;;31.30;20.67;;;;;;;0.50;100.00;98943.13;4192050;28;20746;-50
2022/12/20 01:55:11;;;;;;;29.42;21.17;;;;;;;0.54;100.00;98937.19;4163601;28;20676;-51
2022/12/20 01:57:34;;;;;;;29.88;20.85;;;;;;;0.50;100.00;98943.13;4215665;27;20206;-50
2022/12/20 01:59:38;;;;;;;27.88;19.73;;;;;;;0.50;100.00;98943.97;4188018;28;20774;-50
2022/12/20 02:01:42;;;;;;;29.80;20.73;;;;;;;0.51;100.00;98948.34;4215385;27;20198;-50
2022/12/20 02:03:44;;;;;;;23.60;20.15;;;;;;;0.50;100.00;98941.28;4196864;28;20211;-50
2022/12/20 02:05:46;;;;;;;32.03;18.92;;;;;;;0.57;100.00;98939.56;4204818;28;20307;-50
2022/12/20 02:07:51;;;;;;;29.98;20.50;;;;;;;0.52;100.00;98939.25;4197372;28;20238;-50
2022/12/20 02:09:53;;;;;;;25.58;19.30;;;;;;;0.60;100.00;98928.41;4216325;28;20218;-49
2022/12/20 02:12:11;;;;;;;24.90;19.85;;;;;;;0.60;100.00;98932.97;4200262;28;20300;-49
2022/12/20 02:14:32;;;;;;;22.58;18.40;;;;;;;0.60;100.00;98936.50;4219740;27;20194;-52
2022/12/20 02:16:44;;;;;;;22.40;17.38;;;;;;;0.59;100.00;98925.91;4214039;28;20238;-49
2022/12/20 02:19:01;;;;;;;25.02;17.38;;;;;;;0.58;100.00;98930.47;4216517;28;20236;-51
2022/12/20 02:21:23;;;;;;;18.00;16.15;;;;;;;0.58;100.00;98924.22;4201551;28;20207;-50
2022/12/20 02:23:25;;;;;;;20.65;15.88;;;;;;;0.56;100.00;98919.00;4198852;28;20262;-51
2022/12/20 02:25:29;;;;;;;29.02;19.52;;;;;;;0.55;100.00;98920.03;4200181;28;20206;-51
2022/12/20 02:28:10;;;;;;;19.25;15.75;;;;;;;0.52;100.00;98928.47;4200196;28;20273;-50
2022/12/20 02:30:14;;;;;;;18.27;15.70;;;;;;;0.54;100.00;98929.13;4140586;28;20263;-50
2022/12/20 02:32:23;;;;;;;18.92;16.95;;;;;;;0.53;100.00;98935.53;4154305;28;20255;-50
2022/12/20 02:34:25;;;;;;;17.65;15.55;;;;;;;0.56;100.00;98918.19;4153913;28;20384;-49
2022/12/20 02:36:27;;;;;;;23.15;16.20;;;;;;;0.57;100.00;98926.09;4198146;28;20597;-50
2022/12/20 02:38:35;;;;;;;22.40;15.13;;;;;;;0.71;100.00;98922.63;4217160;27;20235;-50
2022/12/20 02:40:42;;;;;;;17.05;15.35;;;;;;;0.70;100.00;98922.81;4214835;28;20204;-50
2022/12/20 02:42:44;;;;;;;22.17;15.10;;;;;;;0.75;100.00;98926.63;4216536;28;20226;-49
2022/12/20 02:47:15;;;;;;;16.60;13.75;;;;;;;0.93;100.00;98915.56;4217420;27;20211;-50
2022/12/20 02:49:20;;;;;;;21.48;15.00;;;;;;;0.93;100.00;98908.34;4198680;28;20215;-50
2022/12/20 02:51:22;;;;;;;16.83;15.07;;;;;;;0.96;100.00;98902.59;4197895;28;20235;-51
2022/12/20 02:53:24;;;;;;;17.02;12.88;;;;;;;0.95;100.00;98908.97;4207703;28;20436;-49
2022/12/20 02:55:41;;;;;;;22.67;12.98;;;;;;;0.96;100.00;98915.22;4215966;28;20341;-50
2022/12/20 02:57:55;;;;;;;13.93;12.63;;;;;;;1.04;100.00;98913.31;4200586;28;20231;-48
2022/12/20 03:00:08;;;;;;;16.17;13.73;;;;;;;0.96;100.00;98905.31;4202921;28;20203;-49
2022/12/20 03:02:11;;;;;;;12.77;11.30;;;;;;;1.05;100.00;98904.19;4202959;28;20226;-48
2022/12/20 03:04:15;;;;;;;14.40;12.50;;;;;;;1.00;100.00;98903.91;4188573;28;20262;-50
2022/12/20 03:06:17;;;;;;;17.77;13.52;;;;;;;1.04;100.00;98894.44;4217365;27;21008;-49
2022/12/20 03:08:20;;;;;;;21.70;13.73;;;;;;;1.12;100.00;98902.47;4180851;28;20220;-49
2022/12/20 03:10:22;;;;;;;15.93;13.48;;;;;;;1.06;100.00;98886.16;4216297;28;20218;-49
2022/12/20 03:12:24;;;;;;;15.40;13.63;;;;;;;1.07;100.00;98890.56;4199593;28;20203;-49
2022/12/20 03:14:26;;;;;;;19.77;14.55;;;;;;;1.08;100.00;98890.34;4219431;27;20852;-50
2022/12/20 03:16:28;;;;;;;17.58;12.75;;;;;;;1.12;100.00;98886.28;4202852;28;20906;-51
2022/12/20 03:18:30;;;;;;;14.40;12.57;;;;;;;1.10;100.00;98888.34;4198788;28;20705;-49
2022/12/20 03:20:33;;;;;;;13.43;11.88;;;;;;;1.09;100.00;98875.88;4218641;27;20295;-49
2022/12/20 03:22:35;;;;;;;16.48;12.88;;;;;;;1.07;100.00;98877.09;4217128;28;20261;-49
2022/12/20 03:24:37;;;;;;;12.43;11.02;;;;;;;1.14;100.00;98868.06;4186038;28;20227;-49
2022/12/20 03:26:39;;;;;;;14.20;12.07;;;;;;;1.14;100.00;98872.66;4197674;28;20230;-49
2022/12/20 03:28:41;;;;;;;23.15;13.25;;;;;;;1.06;100.00;98870.84;4199547;28;20605;-50
2022/12/20 03:30:43;;;;;;;14.25;12.80;;;;;;;1.07;100.00;98872.53;4201315;28;20765;-49
2022/12/20 03:32:45;;;;;;;18.92;14.32;;;;;;;1.06;100.00;98875.38;4199539;28;20444;-49
2022/12/20 03:34:46;;;;;;;28.75;16.08;;;;;;;1.07;100.00;98872.53;4217770;28;20236;-49
2022/12/20 03:36:48;;;;;;;23.00;17.42;;;;;;;1.06;100.00;98875.38;4201402;28;20252;-49
2022/12/20 03:38:51;;;;;;;17.98;15.65;;;;;;;1.05;100.00;98866.47;4201662;28;20824;-49
2022/12/20 03:40:53;;;;;;;19.23;14.98;;;;;;;1.07;100.00;98866.31;4197885;28;20203;-50
2022/12/20 03:42:55;;;;;;;17.85;15.40;;;;;;;1.10;100.00;98861.41;4185617;28;20266;-49
2022/12/20 03:44:56;;;;;;;26.10;14.73;;;;;;;1.11;100.00;98857.69;4186095;28;20723;-49
2022/12/20 03:46:58;;;;;;;18.00;14.05;;;;;;;1.12;100.00;98870.13;4202454;28;20203;-49
2022/12/20 03:49:00;;;;;;;16.23;14.73;;;;;;;1.09;100.00;98870.47;4218830;28;20230;-49
2022/12/20 03:51:02;;;;;;;19.75;15.00;;;;;;;1.02;100.00;98866.84;4199895;28;21238;-50
2022/12/20 03:53:04;;;;;;;16.75;13.63;;;;;;;1.01;100.00;98861.66;4198388;28;20227;-48
2022/12/20 03:55:06;;;;;;;19.52;14.68;;;;;;;0.97;100.00;98860.31;4217677;27;20712;-49
2022/12/20 03:57:08;;;;;;;14.93;13.30;;;;;;;0.92;100.00;98863.56;4185665;28;20211;-50
2022/12/20 03:59:10;;;;;;;16.67;13.32;;;;;;;0.90;100.00;98871.00;4198752;28;20889;-48
2022/12/20 04:01:23;;;;;;;18.70;14.00;;;;;;;0.89;100.00;98857.69;4190335;28;20208;-50
2022/12/20 04:03:25;;;;;;;16.55;13.95;;;;;;;1.00;100.00;98866.19;4201777;28;20238;-49
2022/12/20 04:05:27;;;;;;;14.35;12.85;;;;;;;0.93;100.00;98845.53;4204764;28;20207;-49
2022/12/20 04:07:28;;;;;;;14.18;12.55;;;;;;;0.86;100.00;98864.28;4200025;27;20231;-49
2022/12/20 04:09:30;;;;;;;14.18;12.88;;;;;;;0.86;100.00;98858.91;4204680;28;20239;-49
2022/12/20 04:11:32;;;;;;;18.83;12.10;;;;;;;0.85;100.00;98862.63;4183086;28;20211;-49
2022/12/20 04:13:34;;;;;;;17.38;13.07;;;;;;;0.92;100.00;98857.31;4200142;28;20241;-50
2022/12/20 04:15:35;;;;;;;14.48;12.07;;;;;;;0.92;100.00;98851.94;4202649;28;20242;-49
2022/12/20 04:17:37;;;;;;;17.98;13.52;;;;;;;0.89;100.00;98853.13;4215302;28;20304;-50
2022/12/20 04:19:39;;;;;;;11.85;10.38;;;;;;;1.00;100.00;98854.59;4183048;28;20222;-49
2022/12/20 04:21:41;;;;;;;16.27;11.00;;;;;;;0.92;100.00;98862.72;4200435;28;20218;-49
2022/12/20 04:23:42;;;;;;;15.90;13.35;;;;;;;0.89;100.00;98857.69;4205227;28;20710;-49
2022/12/20 04:25:44;;;;;;;13.30;12.00;;;;;;;0.88;100.00;98862.25;4197748;28;20241;-50
2022/12/20 04:27:46;;;;;;;15.52;13.07;;;;;;;0.93;100.00;98859.84;4216927;28;20307;-50
2022/12/20 04:29:48;;;;;;;12.75;11.48;;;;;;;0.94;100.00;98858.81;4217423;28;20229;-49
2022/12/20 04:31:50;;;;;;;14.52;12.73;;;;;;;0.94;100.00;98858.81;4201334;28;20402;-49
2022/12/20 04:33:52;;;;;;;14.57;12.60;;;;;;;0.95;100.00;98855.09;4200358;28;20206;-48
2022/12/20 04:35:54;;;;;;;13.55;12.07;;;;;;;1.01;100.00;98849.00;4194208;28;20303;-49
2022/12/20 04:37:56;;;;;;;14.60;12.48;;;;;;;0.97;100.00;98850.41;4217834;28;20278;-49
2022/12/20 04:39:57;;;;;;;16.92;12.85;;;;;;;1.01;100.00;98843.59;4199549;28;20748;-49
2022/12/20 04:41:59;;;;;;;15.55;13.95;;;;;;;1.02;100.00;98845.28;4198322;28;20308;-49
2022/12/20 04:44:01;;;;;;;13.52;11.15;;;;;;;1.01;100.00;98849.00;4216409;28;20760;-50
2022/12/20 04:46:03;;;;;;;13.43;12.02;;;;;;;1.04;100.00;98850.50;4184946;28;20207;-49
2022/12/20 04:48:05;;;;;;;12.75;11.43;;;;;;;1.03;100.00;98855.06;4198093;28;20230;-49
2022/12/20 04:50:27;;;;;;;15.50;11.23;;;;;;;1.07;100.00;98860.94;4195276;28;20205;-49
2022/12/20 04:54:49;;;;;;;12.80;11.25;;;;;;;1.13;100.00;98861.03;4214532;28;20209;-50
2022/12/20 04:56:50;;;;;;;12.38;11.07;;;;;;;1.13;100.00;98861.03;4215979;28;20198;-49
2022/12/20 04:58:54;;;;;;;12.73;11.43;;;;;;;1.15;100.00;98852.75;4196061;28;20310;-49
2022/12/20 05:00:56;;;;;;;19.30;12.80;;;;;;;1.22;100.00;98853.69;4216217;28;20252;-50
2022/12/20 05:02:57;;;;;;;13.35;11.85;;;;;;;1.21;100.00;98855.53;4200003;28;20658;-48
2022/12/20 05:05:00;;;;;;;14.27;12.85;;;;;;;1.24;100.00;98863.28;4218744;28;20242;-48
2022/12/20 05:07:02;;;;;;;15.30;12.43;;;;;;;1.32;100.00;98854.25;4199667;28;20238;-50
2022/12/20 05:09:03;;;;;;;18.17;12.75;;;;;;;1.24;100.00;98852.50;4198221;28;20582;-49
2022/12/20 05:11:06;;;;;;;15.02;11.82;;;;;;;1.31;100.00;98850.75;4213947;28;20245;-49
2022/12/20 05:13:08;;;;;;;12.98;11.57;;;;;;;1.27;100.00;98846.72;4212823;28;20207;-49
2022/12/20 05:15:11;;;;;;;13.35;11.88;;;;;;;1.24;100.00;98841.72;4201794;28;20318;-49
2022/12/20 05:17:13;;;;;;;15.18;12.35;;;;;;;1.24;100.00;98851.66;4198178;28;20218;-49
2022/12/20 05:19:15;;;;;;;14.95;11.07;;;;;;;1.24;100.00;98846.25;4195461;28;20332;-49
2022/12/20 05:26:16;;;;;;;11.80;10.57;;;;;;;1.30;100.00;98841.00;4206345;28;20714;-49
2022/12/20 05:28:18;;;;;;;12.82;11.60;;;;;;;1.34;100.00;98836.88;4200001;28;20588;-50
2022/12/20 05:30:20;;;;;;;12.30;11.20;;;;;;;1.31;100.00;98831.88;4216230;28;20248;-50
2022/12/20 05:32:22;;;;;;;11.25;10.10;;;;;;;1.34;100.00;98841.47;4214450;27;20259;-49
2022/12/20 05:34:23;;;;;;;12.27;10.68;;;;;;;1.41;100.00;98832.44;4206332;28;20202;-50
2022/12/20 05:36:25;;;;;;;18.75;12.00;;;;;;;1.41;100.00;98832.44;4206648;28;20601;-49
2022/12/20 05:38:27;;;;;;;13.65;10.82;;;;;;;1.40;100.00;98836.16;4207666;28;20786;-50
2022/12/20 05:40:29;;;;;;;12.82;9.88;;;;;;;1.46;100.00;98830.03;4199876;28;20207;-49
2022/12/20 05:42:31;;;;;;;14.15;9.52;;;;;;;1.47;100.00;98825.50;4204216;28;20299;-48
2022/12/20 05:44:33;;;;;;;15.55;10.68;;;;;;;1.50;100.00;98815.16;4202361;28;20260;-49
2022/12/20 05:46:35;;;;;;;12.20;11.00;;;;;;;1.63;100.00;98812.66;4203180;28;20229;-49
2022/12/20 05:48:37;;;;;;;12.57;10.55;;;;;;;1.49;100.00;98821.56;4204425;28;20284;-50
2022/12/20 05:50:39;;;;;;;13.48;10.80;;;;;;;1.46;100.00;98819.25;4217817;27;20649;-49
2022/12/20 05:52:41;;;;;;;10.38;9.27;;;;;;;1.44;100.00;98826.69;4197720;28;20213;-50
2022/12/20 05:54:43;;;;;;;11.57;10.40;;;;;;;1.50;100.00;98823.25;4195389;28;20207;-50
2022/12/20 05:56:45;;;;;;;12.70;11.10;;;;;;;1.51;100.00;98827.63;4198611;28;20207;-49
2022/12/20 05:58:46;;;;;;;12.05;10.18;;;;;;;1.54;100.00;98816.44;4204194;28;20230;-50
2022/12/20 06:00:48;;;;;;;11.75;10.75;;;;;;;1.58;100.00;98808.81;4202599;28;20585;-49
2022/12/20 06:02:50;;;;;;;12.20;9.70;;;;;;;1.59;100.00;98807.78;4194492;28;20203;-50
2022/12/20 06:04:52;;;;;;;13.32;10.68;;;;;;;1.68;100.00;98812.91;4221211;27;20231;-49
2022/12/20 06:06:54;;;;;;;10.60;9.55;;;;;;;1.78;100.00;98802.69;4219412;27;20235;-49
2022/12/20 06:08:56;;;;;;;12.20;11.00;;;;;;;1.74;100.00;98812.16;4199117;28;20656;-49
2022/12/20 06:10:58;;;;;;;10.18;9.27;;;;;;;1.73;100.00;98799.72;4216827;28;20758;-49
2022/12/20 06:13:03;;;;;;;11.80;10.70;;;;;;;1.71;100.00;98807.16;4200514;28;20230;-48
2022/12/20 06:15:05;;;;;;;11.82;10.57;;;;;;;1.83;100.00;98805.66;4199149;28;20218;-50
2022/12/20 06:17:07;;;;;;;9.25;8.32;;;;;;;1.75;100.00;98803.03;4185633;28;20554;-48
2022/12/20 06:19:13;;;;;;;9.70;8.85;;;;;;;1.70;100.00;98805.50;4214398;28;20696;-50
2022/12/20 06:21:27;;;;;;;12.13;11.02;;;;;;;1.70;100.00;98816.28;4201199;27;20256;-50
2022/12/20 06:23:29;;;;;;;12.00;10.15;;;;;;;1.85;100.00;98809.00;4187072;28;20276;-48
2022/12/20 06:25:31;;;;;;;15.70;12.15;;;;;;;1.83;100.00;98811.06;4205665;28;20264;-49
2022/12/20 06:27:35;;;;;;;12.45;11.07;;;;;;;1.94;100.00;98797.06;4200255;28;20226;-49
2022/12/20 06:29:50;;;;;;;11.40;10.27;;;;;;;2.11;100.00;98806.63;4199240;28;20235;-49
2022/12/20 06:31:56;;;;;;;11.23;10.30;;;;;;;2.17;100.00;98807.72;4204399;28;20677;-49
2022/12/20 06:33:58;;;;;;;13.52;10.52;;;;;;;2.07;100.00;98796.41;4200258;28;20286;-49
2022/12/20 06:36:02;;;;;;;16.45;9.50;;;;;;;1.99;100.00;98802.75;4216978;27;20574;-49
2022/12/20 06:38:14;;;;;;;12.10;10.85;;;;;;;1.97;100.00;98796.72;4218568;27;20230;-48
2022/12/20 06:40:19;;;;;;;11.32;10.15;;;;;;;1.90;100.00;98801.19;4220125;28;20206;-48
2022/12/20 06:42:21;;;;;;;11.98;9.98;;;;;;;1.89;100.00;98793.28;4221142;27;20212;-48
2022/12/20 06:44:23;;;;;;;11.35;10.18;;;;;;;1.93;100.00;98795.41;4216985;27;20229;-50
2022/12/20 06:46:26;;;;;;;12.07;10.85;;;;;;;1.90;100.00;98803.88;4201127;28;20780;-49
2022/12/20 06:48:28;;;;;;;11.02;9.90;;;;;;;1.89;100.00;98798.66;4208457;28;20230;-49
2022/12/20 06:50:30;;;;;;;11.18;10.00;;;;;;;1.90;100.00;98801.19;4200154;28;20210;-49
2022/12/20 06:52:34;;;;;;;12.68;10.18;;;;;;;1.87;100.00;98793.44;4203262;28;20237;-49
2022/12/20 06:54:58;;;;;;;11.70;10.70;;;;;;;1.94;100.00;98797.06;4203248;27;20568;-49
2022/12/20 06:57:09;;;;;;;11.07;8.18;;;;;;;2.08;100.00;98798.91;4200146;28;20259;-50
2022/12/20 06:59:11;;;;;;;11.00;9.85;;;;;;;2.02;100.00;98793.44;4198260;28;20244;-49
2022/12/20 07:01:12;;;;;;;17.75;10.00;;;;;;;1.96;100.00;98789.66;4185600;28;20203;-48
2022/12/20 07:03:14;;;;;;;14.07;8.27;;;;;;;1.98;100.00;98801.06;4216517;27;20203;-49
2022/12/20 07:05:17;;;;;;;9.77;8.18;;;;;;;1.91;100.00;98810.94;4200396;28;20256;-48
2022/12/20 07:07:19;;;;;;;11.23;10.10;;;;;;;1.91;100.00;98808.25;4217856;27;20213;-49
2022/12/20 07:09:20;;;;;;;9.18;8.27;;;;;;;1.84;100.00;98801.94;4185352;28;20290;-50
2022/12/20 07:11:22;;;;;;;9.75;8.85;;;;;;;1.83;100.00;98791.31;4187403;28;20215;-48
2022/12/20 07:13:25;;;;;;;9.40;8.52;;;;;;;1.89;100.00;98798.66;4197210;28;20218;-49
2022/12/20 07:15:27;;;;;;;10.48;9.60;;;;;;;1.86;100.00;98790.94;4184971;28;20212;-49
2022/12/20 07:17:28;;;;;;;9.65;8.75;;;;;;;1.90;100.00;98795.78;4196848;28;20231;-49
2022/12/20 07:19:30;;;;;;;11.32;9.68;;;;;;;1.77;100.00;98795.63;4211964;27;20198;-49
2022/12/20 07:21:32;;;;;;;11.82;9.25;;;;;;;1.70;100.00;98796.56;4196542;28;20237;-50
2022/12/20 07:23:34;;;;;;;12.18;10.38;;;;;;;1.80;100.00;98789.84;4196496;28;20237;-49
2022/12/20 07:25:37;;;;;;;11.48;10.35;;;;;;;1.69;100.00;98793.00;4193223;28;20245;-48
2022/12/20 07:27:40;;;;;;;10.00;9.07;;;;;;;1.64;100.00;98787.34;4194995;28;20693;-50
2022/12/20 07:29:42;;;;;;;10.05;8.90;;;;;;;1.66;100.00;98784.44;4203560;28;20620;-49
2022/12/20 07:31:44;;;;;;;12.98;11.60;;;;;;;1.73;100.00;98782.72;4202417;28;20219;-49
2022/12/20 07:33:46;;;;;;;9.88;9.00;;;;;;;1.67;100.00;98786.97;4185609;28;20487;-49
2022/12/20 07:35:59;;;;;;;11.05;9.93;;;;;;;1.77;100.00;98779.44;4184490;28;20741;-48
2022/12/20 07:38:01;;;;;;;9.85;9.05;;;;;;;1.75;100.00;98778.78;4181867;28;20261;-49
2022/12/20 07:40:04;;;;;;;12.63;10.60;;;;;;;1.71;100.00;98772.09;4196670;28;20545;-49
2022/12/20 07:42:08;;;;;;;16.08;11.00;;;;;;;1.76;100.00;98766.97;4196002;28;20659;-48
2022/12/20 07:44:17;;;;;;;10.82;9.90;;;;;;;1.79;100.00;98771.97;4211786;28;20226;-48
2022/12/20 07:46:19;;;;;;;11.38;10.40;;;;;;;1.84;100.00;98769.56;4214911;28;20580;-48
2022/12/20 07:48:21;;;;;;;10.57;9.48;;;;;;;1.85;100.00;98754.19;4215196;28;20240;-49
2022/12/20 07:50:23;;;;;;;9.60;8.23;;;;;;;1.81;100.00;98751.03;4197250;28;20203;-49
2022/12/20 07:52:28;;;;;;;11.73;10.73;;;;;;;1.81;100.00;98759.13;4203091;28;20216;-49
2022/12/20 07:54:32;;;;;;;10.07;7.80;;;;;;;1.82;100.00;98760.81;4200126;28;20252;-49
2022/12/20 07:56:38;;;;;;;10.18;9.27;;;;;;;1.84;100.00;98758.78;4215348;27;20280;-49
2022/12/20 07:58:43;;;;;;;9.07;8.18;;;;;;;1.91;100.00;98754.28;4197837;28;20229;-49
2022/12/20 08:00:45;;;;;;;7.45;6.85;;;;;;;1.96;100.00;98768.06;4198059;28;20202;-49
2022/12/20 08:02:55;;;;;;;7.57;6.88;;;;;;;1.98;100.00;98760.59;4195620;28;20204;-50
2022/12/20 08:04:57;;;;;;;7.38;6.68;;;;;;;1.98;100.00;98765.16;4197063;28;20235;-50
2022/12/20 08:07:04;;;;;;;9.05;8.25;;;;;;;2.04;100.00;98765.25;4202552;28;20637;-50
2022/12/20 08:09:07;;;;;;;12.02;9.23;;;;;;;1.96;100.00;98759.97;4184905;28;20223;-49
2022/12/20 08:11:09;;;;;;;10.57;8.55;;;;;;;2.02;100.00;98756.47;4200620;28;20199;-49
2022/12/20 08:13:11;;;;;;;10.95;9.95;;;;;;;2.02;100.00;98756.47;4201028;28;20290;-50
2022/12/20 08:15:13;;;;;;;12.23;11.05;;;;;;;2.01;100.00;98749.41;4216110;28;20201;-50
2022/12/20 08:17:16;;;;;;;12.50;10.85;;;;;;;2.10;100.00;98742.91;4215073;27;20202;-50
2022/12/20 08:19:18;;;;;;;10.32;9.32;;;;;;;2.06;100.00;98746.13;4211554;28;20228;-50
2022/12/20 08:21:25;;;;;;;12.15;10.98;;;;;;;2.08;100.00;98744.91;4214341;28;20274;-50
2022/12/20 08:23:27;;;;;;;11.02;9.90;;;;;;;2.10;100.00;98745.59;4203303;28;20743;-48
2022/12/20 08:25:29;;;;;;;12.57;10.93;;;;;;;2.14;100.00;98732.56;4187695;28;20245;-51
2022/12/20 08:27:38;;;;;;;10.85;9.82;;;;;;;2.18;100.00;98729.28;4216030;28;20227;-50
2022/12/20 08:29:40;;;;;;;10.95;9.85;;;;;;;2.24;100.00;98728.50;4198772;28;20725;-48
2022/12/20 08:31:42;;;;;;;11.82;9.55;;;;;;;2.49;100.00;98732.50;4212762;28;20251;-51
2022/12/20 08:33:53;;;;;;;11.77;9.77;;;;;;;2.64;100.00;98738.66;4199802;28;20210;-48
2022/12/20 08:35:59;;;;;;;11.02;9.93;;;;;;;2.61;100.00;98741.72;4199346;28;20218;-49
2022/12/20 08:38:19;;;;;;;11.25;10.18;;;;;;;2.62;100.00;98743.38;4200418;28;20237;-49
2022/12/20 08:40:21;;;;;;;11.95;10.73;;;;;;;2.75;100.00;98746.19;4198301;28;20195;-49
2022/12/20 08:42:23;;;;;;;14.30;12.80;;;;;;;2.63;100.00;98745.06;4202809;28;20717;-49
2022/12/20 08:44:25;;;;;;;15.80;13.55;;;;;;;2.62;100.00;98727.19;4199301;28;20222;-49
2022/12/20 08:46:27;;;;;;;13.25;11.95;;;;;;;2.76;100.00;98734.38;4216856;28;20796;-49
2022/12/20 08:48:31;;;;;;;11.77;10.18;;;;;;;2.76;100.00;98742.50;4199007;28;20231;-48
2022/12/20 08:50:33;;;;;;;14.65;12.75;;;;;;;2.87;100.00;98739.22;4216940;28;20256;-49
2022/12/20 08:52:35;;;;;;;12.57;11.27;;;;;;;2.94;100.00;98740.13;4189282;28;20582;-49
2022/12/20 08:54:36;;;;;;;13.18;11.27;;;;;;;3.16;100.00;98730.94;4216827;28;20210;-49
2022/12/20 08:56:38;;;;;;;9.20;8.40;;;;;;;3.48;100.00;98734.88;4183111;28;20208;-49
2022/12/20 08:58:41;;;;;;;10.30;7.53;;;;;;;3.64;100.00;98734.53;4197821;28;20317;-49
2022/12/20 09:00:43;;;;;;;10.40;8.20;;;;;;;3.77;100.00;98735.44;4216943;28;20203;-49
2022/12/20 09:02:46;;;;;;;11.50;10.10;;;;;;;4.08;100.00;98732.22;4185152;28;20203;-49
2022/12/20 09:04:49;;;;;;;4.07;3.10;;;;;;;6.25;100.00;98731.53;4214135;28;20234;-50
2022/12/20 09:06:51;;;;;;;4.72;2.72;;;;;;;6.95;100.00;98728.56;4190167;28;20261;-50
2022/12/20 09:08:54;;;;;;;3.33;2.03;;;;;;;7.02;100.00;98729.34;4199608;28;20223;-50
2022/12/20 09:11:09;;;;;;;2.63;2.03;;;;;;;7.30;100.00;98722.34;4201196;28;20340;-49
2022/12/20 09:13:11;;;;;;;1.50;1.40;;;;;;;7.64;100.00;98723.69;4205100;28;20214;-50
2022/12/20 09:15:13;;;;;;;1.75;1.65;;;;;;;8.48;100.00;98721.81;4203815;28;20210;-50
2022/12/20 09:17:14;;;;;;;1.73;1.48;;;;;;;8.78;100.00;98717.13;4197952;28;20701;-50
2022/12/20 09:19:16;;;;;;;1.48;1.30;;;;;;;8.96;100.00;98714.34;4197390;28;20198;-50
2022/12/20 09:21:19;;;;;;;1.58;1.48;;;;;;;9.01;100.00;98715.28;4198776;28;20686;-48
2022/12/20 09:23:20;;;;;;;1.55;1.45;;;;;;;9.03;100.00;98712.34;4217469;28;20242;-48
2022/12/20 09:25:22;;;;;;;1.90;1.80;;;;;;;8.81;100.00;98711.22;4220498;27;20309;-48
2022/12/20 09:27:24;;;;;;;2.83;2.63;;;;;;;8.95;100.00;98713.50;4198407;28;20211;-48
2022/12/20 09:29:26;;;;;;;7.45;2.60;;;;;;;8.65;100.00;98706.44;4200494;28;20253;-48
2022/12/20 09:31:36;;;;;;;4.22;3.40;;;;;;;8.00;100.00;98699.13;4212047;27;20206;-48
2022/12/20 09:33:38;;;;;;;4.45;4.05;;;;;;;7.85;100.00;98699.56;4195830;28;20245;-49
2022/12/20 09:35:45;;;;;;;5.05;4.32;;;;;;;7.70;100.00;98706.44;4198850;28;20217;-47
2022/12/20 09:37:49;;;;;;;3.67;3.17;;;;;;;7.24;100.00;98706.94;4200402;28;20273;-48
2022/12/20 09:39:51;;;;;;;3.67;3.15;;;;;;;7.68;100.00;98708.56;4215966;27;20574;-48
2022/12/20 09:41:53;;;;;;;2.97;2.60;;;;;;;7.54;100.00;98707.03;4184288;28;20605;-49